sensor_id;sensor_type;location;lat;lon;timestamp;P1;durP1;ratioP1;P2;durP2;ratioP2
18532;SDS011;9396;51.510;11.934;2023-12-28T00:00:50;3.60;;;1.50;;
18532;SDS011;9396;51.510;11.934;2023-12-28T00:03:18;2.10;;;1.50;;
18532;SDS011;9396;51.510;11.934;2023-12-28T00:05:45;4.27;;;1.60;;
18532;SDS011;9396;51.510;11.934;2023-12-28T00:08:13;2.13;;;1.50;;
18532;SDS011;9396;51.510;11.934;2023-12-28T00:10:40;2.20;;;1.40;;
18532;SDS011;9396;51.510;11.934;2023-12-28T00:13:06;2.90;;;1.53;;
18532;SDS011;9396;51.510;11.934;2023-12-28T00:15:33;1.50;;;1.30;;
18532;SDS011;9396;51.510;11.934;2023-12-28T00:18:00;2.37;;;1.87;;
18532;SDS011;9396;51.510;11.934;2023-12-28T00:20:28;1.57;;;1.40;;
18532;SDS011;9396;51.510;11.934;2023-12-28T00:22:54;2.07;;;1.40;;
18532;SDS011;9396;51.510;11.934;2023-12-28T00:25:21;3.23;;;1.50;;
18532;SDS011;9396;51.510;11.934;2023-12-28T00:27:48;3.17;;;1.50;;
18532;SDS011;9396;51.510;11.934;2023-12-28T00:30:14;2.53;;;1.70;;
18532;SDS011;9396;51.510;11.934;2023-12-28T00:32:42;5.47;;;1.60;;
18532;SDS011;9396;51.510;11.934;2023-12-28T00:35:11;3.30;;;1.40;;
18532;SDS011;9396;51.510;11.934;2023-12-28T00:37:39;3.63;;;1.30;;
18532;SDS011;9396;51.510;11.934;2023-12-28T00:40:06;1.90;;;1.40;;
18532;SDS011;9396;51.510;11.934;2023-12-28T00:42:33;3.53;;;1.57;;
18532;SDS011;9396;51.510;11.934;2023-12-28T00:45:00;2.93;;;2.13;;
18532;SDS011;9396;51.510;11.934;2023-12-28T00:47:27;2.07;;;1.57;;
18532;SDS011;9396;51.510;11.934;2023-12-28T00:49:54;3.43;;;1.63;;
18532;SDS011;9396;51.510;11.934;2023-12-28T00:52:20;2.50;;;1.70;;
18532;SDS011;9396;51.510;11.934;2023-12-28T00:54:48;3.23;;;1.50;;
18532;SDS011;9396;51.510;11.934;2023-12-28T00:57:15;3.47;;;1.30;;
18532;SDS011;9396;51.510;11.934;2023-12-28T00:59:42;1.90;;;1.50;;
18532;SDS011;9396;51.510;11.934;2023-12-28T01:02:08;2.47;;;1.43;;
18532;SDS011;9396;51.510;11.934;2023-12-28T01:04:35;1.77;;;1.30;;
18532;SDS011;9396;51.510;11.934;2023-12-28T01:07:02;3.20;;;1.37;;
18532;SDS011;9396;51.510;11.934;2023-12-28T01:09:30;1.83;;;1.40;;
18532;SDS011;9396;51.510;11.934;2023-12-28T01:11:59;2.10;;;1.43;;
18532;SDS011;9396;51.510;11.934;2023-12-28T01:14:26;4.63;;;1.60;;
18532;SDS011;9396;51.510;11.934;2023-12-28T01:16:53;3.97;;;1.47;;
18532;SDS011;9396;51.510;11.934;2023-12-28T01:19:19;2.73;;;1.30;;
18532;SDS011;9396;51.510;11.934;2023-12-28T01:21:46;3.00;;;1.50;;
18532;SDS011;9396;51.510;11.934;2023-12-28T01:24:13;2.10;;;1.70;;
18532;SDS011;9396;51.510;11.934;2023-12-28T01:26:39;1.63;;;1.50;;
18532;SDS011;9396;51.510;11.934;2023-12-28T01:29:07;2.20;;;1.40;;
18532;SDS011;9396;51.510;11.934;2023-12-28T01:31:34;2.77;;;1.37;;
18532;SDS011;9396;51.510;11.934;2023-12-28T01:34:00;1.97;;;1.40;;
18532;SDS011;9396;51.510;11.934;2023-12-28T01:36:27;5.13;;;1.80;;
18532;SDS011;9396;51.510;11.934;2023-12-28T01:38:55;1.70;;;1.33;;
18532;SDS011;9396;51.510;11.934;2023-12-28T01:41:22;2.97;;;1.37;;
18532;SDS011;9396;51.510;11.934;2023-12-28T01:43:48;2.47;;;1.50;;
18532;SDS011;9396;51.510;11.934;2023-12-28T01:46:16;3.40;;;1.57;;
18532;SDS011;9396;51.510;11.934;2023-12-28T01:48:45;3.30;;;1.20;;
18532;SDS011;9396;51.510;11.934;2023-12-28T01:51:14;2.10;;;1.50;;
18532;SDS011;9396;51.510;11.934;2023-12-28T01:53:41;2.03;;;1.30;;
18532;SDS011;9396;51.510;11.934;2023-12-28T01:56:08;2.47;;;1.57;;
18532;SDS011;9396;51.510;11.934;2023-12-28T01:58:35;2.33;;;1.43;;
18532;SDS011;9396;51.510;11.934;2023-12-28T02:01:05;1.60;;;1.33;;
18532;SDS011;9396;51.510;11.934;2023-12-28T02:03:34;1.77;;;1.37;;
18532;SDS011;9396;51.510;11.934;2023-12-28T02:06:00;1.67;;;1.17;;
18532;SDS011;9396;51.510;11.934;2023-12-28T02:08:27;2.40;;;1.60;;
18532;SDS011;9396;51.510;11.934;2023-12-28T02:10:54;2.00;;;1.30;;
18532;SDS011;9396;51.510;11.934;2023-12-28T02:13:21;1.90;;;1.40;;
18532;SDS011;9396;51.510;11.934;2023-12-28T02:15:49;2.63;;;1.60;;
18532;SDS011;9396;51.510;11.934;2023-12-28T02:18:21;4.23;;;1.40;;
18532;SDS011;9396;51.510;11.934;2023-12-28T02:20:54;2.60;;;1.37;;
18532;SDS011;9396;51.510;11.934;2023-12-28T02:23:23;2.07;;;1.53;;
18532;SDS011;9396;51.510;11.934;2023-12-28T02:25:50;2.20;;;1.37;;
18532;SDS011;9396;51.510;11.934;2023-12-28T02:28:17;1.77;;;1.30;;
18532;SDS011;9396;51.510;11.934;2023-12-28T02:30:44;2.60;;;1.60;;
18532;SDS011;9396;51.510;11.934;2023-12-28T02:33:11;1.30;;;1.20;;
18532;SDS011;9396;51.510;11.934;2023-12-28T02:35:43;1.70;;;1.37;;
18532;SDS011;9396;51.510;11.934;2023-12-28T02:38:13;2.67;;;1.43;;
18532;SDS011;9396;51.510;11.934;2023-12-28T02:40:42;4.27;;;1.30;;
18532;SDS011;9396;51.510;11.934;2023-12-28T02:43:11;2.00;;;1.53;;
18532;SDS011;9396;51.510;11.934;2023-12-28T02:45:38;4.13;;;1.40;;
18532;SDS011;9396;51.510;11.934;2023-12-28T02:48:05;1.40;;;1.13;;
18532;SDS011;9396;51.510;11.934;2023-12-28T02:50:33;2.33;;;1.50;;
18532;SDS011;9396;51.510;11.934;2023-12-28T02:53:00;2.07;;;1.60;;
18532;SDS011;9396;51.510;11.934;2023-12-28T02:55:27;3.13;;;1.30;;
18532;SDS011;9396;51.510;11.934;2023-12-28T02:57:56;3.70;;;1.40;;
18532;SDS011;9396;51.510;11.934;2023-12-28T03:00:26;1.90;;;1.40;;
18532;SDS011;9396;51.510;11.934;2023-12-28T03:02:53;5.60;;;1.47;;
18532;SDS011;9396;51.510;11.934;2023-12-28T03:05:20;2.23;;;1.20;;
18532;SDS011;9396;51.510;11.934;2023-12-28T03:07:46;3.00;;;1.40;;
18532;SDS011;9396;51.510;11.934;2023-12-28T03:10:13;2.57;;;1.70;;
18532;SDS011;9396;51.510;11.934;2023-12-28T03:12:40;3.47;;;1.47;;
18532;SDS011;9396;51.510;11.934;2023-12-28T03:15:06;3.37;;;1.50;;
18532;SDS011;9396;51.510;11.934;2023-12-28T03:17:35;1.70;;;1.23;;
18532;SDS011;9396;51.510;11.934;2023-12-28T03:20:02;1.93;;;1.50;;
18532;SDS011;9396;51.510;11.934;2023-12-28T03:22:29;3.20;;;1.43;;
18532;SDS011;9396;51.510;11.934;2023-12-28T03:24:55;1.93;;;1.10;;
18532;SDS011;9396;51.510;11.934;2023-12-28T03:27:22;1.53;;;1.23;;
18532;SDS011;9396;51.510;11.934;2023-12-28T03:29:48;1.60;;;1.33;;
18532;SDS011;9396;51.510;11.934;2023-12-28T03:32:15;2.63;;;1.43;;
18532;SDS011;9396;51.510;11.934;2023-12-28T03:34:43;4.30;;;1.50;;
18532;SDS011;9396;51.510;11.934;2023-12-28T03:37:10;2.70;;;1.30;;
18532;SDS011;9396;51.510;11.934;2023-12-28T03:39:37;1.53;;;1.33;;
18532;SDS011;9396;51.510;11.934;2023-12-28T03:42:04;1.73;;;1.20;;
18532;SDS011;9396;51.510;11.934;2023-12-28T03:44:30;2.97;;;1.70;;
18532;SDS011;9396;51.510;11.934;2023-12-28T03:46:57;2.53;;;1.70;;
18532;SDS011;9396;51.510;11.934;2023-12-28T03:49:25;2.03;;;1.40;;
18532;SDS011;9396;51.510;11.934;2023-12-28T03:51:53;2.37;;;1.43;;
18532;SDS011;9396;51.510;11.934;2023-12-28T03:54:19;5.60;;;1.50;;
18532;SDS011;9396;51.510;11.934;2023-12-28T03:56:46;2.53;;;1.83;;
18532;SDS011;9396;51.510;11.934;2023-12-28T03:59:13;3.13;;;1.60;;
18532;SDS011;9396;51.510;11.934;2023-12-28T04:01:41;1.87;;;1.50;;
18532;SDS011;9396;51.510;11.934;2023-12-28T04:04:08;6.73;;;1.67;;
18532;SDS011;9396;51.510;11.934;2023-12-28T04:06:35;3.20;;;1.60;;
18532;SDS011;9396;51.510;11.934;2023-12-28T04:09:03;3.80;;;1.50;;
18532;SDS011;9396;51.510;11.934;2023-12-28T04:11:29;1.73;;;1.60;;
18532;SDS011;9396;51.510;11.934;2023-12-28T04:13:56;2.87;;;1.60;;
18532;SDS011;9396;51.510;11.934;2023-12-28T04:16:22;2.67;;;1.87;;
18532;SDS011;9396;51.510;11.934;2023-12-28T04:18:49;3.03;;;1.70;;
18532;SDS011;9396;51.510;11.934;2023-12-28T04:21:15;2.40;;;1.70;;
18532;SDS011;9396;51.510;11.934;2023-12-28T04:23:42;2.23;;;1.57;;
18532;SDS011;9396;51.510;11.934;2023-12-28T04:26:10;2.50;;;1.90;;
18532;SDS011;9396;51.510;11.934;2023-12-28T04:28:37;5.03;;;1.80;;
18532;SDS011;9396;51.510;11.934;2023-12-28T04:31:03;4.10;;;1.60;;
18532;SDS011;9396;51.510;11.934;2023-12-28T04:33:30;6.47;;;1.90;;
18532;SDS011;9396;51.510;11.934;2023-12-28T04:35:57;2.73;;;2.17;;
18532;SDS011;9396;51.510;11.934;2023-12-28T04:38:26;5.00;;;1.90;;
18532;SDS011;9396;51.510;11.934;2023-12-28T04:40:53;5.70;;;3.07;;
18532;SDS011;9396;51.510;11.934;2023-12-28T04:43:21;4.87;;;1.83;;
18532;SDS011;9396;51.510;11.934;2023-12-28T04:45:48;3.30;;;1.77;;
18532;SDS011;9396;51.510;11.934;2023-12-28T04:48:15;2.77;;;1.83;;
18532;SDS011;9396;51.510;11.934;2023-12-28T04:50:45;3.67;;;1.60;;
18532;SDS011;9396;51.510;11.934;2023-12-28T04:53:12;2.97;;;2.00;;
18532;SDS011;9396;51.510;11.934;2023-12-28T04:55:39;4.27;;;1.80;;
18532;SDS011;9396;51.510;11.934;2023-12-28T04:58:05;2.27;;;1.70;;
18532;SDS011;9396;51.510;11.934;2023-12-28T05:00:33;3.90;;;1.50;;
18532;SDS011;9396;51.510;11.934;2023-12-28T05:03:00;2.53;;;1.90;;
18532;SDS011;9396;51.510;11.934;2023-12-28T05:05:27;1.90;;;1.30;;
18532;SDS011;9396;51.510;11.934;2023-12-28T05:07:53;4.17;;;1.70;;
18532;SDS011;9396;51.510;11.934;2023-12-28T05:10:20;5.60;;;1.77;;
18532;SDS011;9396;51.510;11.934;2023-12-28T05:12:46;4.20;;;1.93;;
18532;SDS011;9396;51.510;11.934;2023-12-28T05:15:13;2.80;;;1.80;;
18532;SDS011;9396;51.510;11.934;2023-12-28T05:17:42;5.30;;;1.90;;
18532;SDS011;9396;51.510;11.934;2023-12-28T05:20:08;2.07;;;1.40;;
18532;SDS011;9396;51.510;11.934;2023-12-28T05:22:35;3.20;;;1.67;;
18532;SDS011;9396;51.510;11.934;2023-12-28T05:25:02;2.70;;;1.80;;
18532;SDS011;9396;51.510;11.934;2023-12-28T05:27:30;3.40;;;2.03;;
18532;SDS011;9396;51.510;11.934;2023-12-28T05:29:56;3.87;;;1.93;;
18532;SDS011;9396;51.510;11.934;2023-12-28T05:32:23;3.60;;;1.70;;
18532;SDS011;9396;51.510;11.934;2023-12-28T05:34:51;3.87;;;2.00;;
18532;SDS011;9396;51.510;11.934;2023-12-28T05:37:17;2.83;;;1.87;;
18532;SDS011;9396;51.510;11.934;2023-12-28T05:39:44;4.60;;;2.00;;
18532;SDS011;9396;51.510;11.934;2023-12-28T05:42:10;3.13;;;1.83;;
18532;SDS011;9396;51.510;11.934;2023-12-28T05:44:37;3.17;;;2.30;;
18532;SDS011;9396;51.510;11.934;2023-12-28T05:47:04;3.67;;;2.20;;
18532;SDS011;9396;51.510;11.934;2023-12-28T05:49:30;3.23;;;2.10;;
18532;SDS011;9396;51.510;11.934;2023-12-28T05:51:58;3.30;;;2.00;;
18532;SDS011;9396;51.510;11.934;2023-12-28T05:54:25;3.33;;;2.30;;
18532;SDS011;9396;51.510;11.934;2023-12-28T05:56:52;3.93;;;2.10;;
18532;SDS011;9396;51.510;11.934;2023-12-28T05:59:18;4.10;;;2.40;;
18532;SDS011;9396;51.510;11.934;2023-12-28T06:01:46;5.87;;;2.30;;
18532;SDS011;9396;51.510;11.934;2023-12-28T06:04:13;5.47;;;2.37;;
18532;SDS011;9396;51.510;11.934;2023-12-28T06:06:40;2.80;;;2.00;;
18532;SDS011;9396;51.510;11.934;2023-12-28T06:09:08;3.37;;;2.03;;
18532;SDS011;9396;51.510;11.934;2023-12-28T06:11:34;3.27;;;2.00;;
18532;SDS011;9396;51.510;11.934;2023-12-28T06:14:01;3.03;;;2.33;;
18532;SDS011;9396;51.510;11.934;2023-12-28T06:16:28;2.87;;;2.00;;
18532;SDS011;9396;51.510;11.934;2023-12-28T06:18:57;3.80;;;2.63;;
18532;SDS011;9396;51.510;11.934;2023-12-28T06:21:24;4.60;;;2.30;;
18532;SDS011;9396;51.510;11.934;2023-12-28T06:23:52;4.30;;;2.47;;
18532;SDS011;9396;51.510;11.934;2023-12-28T06:26:20;5.87;;;2.73;;
18532;SDS011;9396;51.510;11.934;2023-12-28T06:28:46;5.47;;;2.80;;
18532;SDS011;9396;51.510;11.934;2023-12-28T06:31:13;3.80;;;2.47;;
18532;SDS011;9396;51.510;11.934;2023-12-28T06:33:39;4.60;;;2.50;;
18532;SDS011;9396;51.510;11.934;2023-12-28T06:36:06;4.00;;;2.50;;
18532;SDS011;9396;51.510;11.934;2023-12-28T06:38:33;3.60;;;2.70;;
18532;SDS011;9396;51.510;11.934;2023-12-28T06:41:00;4.70;;;2.50;;
18532;SDS011;9396;51.510;11.934;2023-12-28T06:43:28;5.17;;;2.43;;
18532;SDS011;9396;51.510;11.934;2023-12-28T06:45:55;4.60;;;2.50;;
18532;SDS011;9396;51.510;11.934;2023-12-28T06:48:21;4.43;;;2.33;;
18532;SDS011;9396;51.510;11.934;2023-12-28T06:50:49;4.40;;;2.60;;
18532;SDS011;9396;51.510;11.934;2023-12-28T06:53:15;3.83;;;2.57;;
18532;SDS011;9396;51.510;11.934;2023-12-28T06:55:42;4.47;;;2.60;;
18532;SDS011;9396;51.510;11.934;2023-12-28T06:58:09;3.13;;;2.70;;
18532;SDS011;9396;51.510;11.934;2023-12-28T07:00:37;3.23;;;2.23;;
18532;SDS011;9396;51.510;11.934;2023-12-28T07:03:03;5.13;;;2.70;;
18532;SDS011;9396;51.510;11.934;2023-12-28T07:05:30;5.93;;;2.90;;
18532;SDS011;9396;51.510;11.934;2023-12-28T07:07:57;4.47;;;2.40;;
18532;SDS011;9396;51.510;11.934;2023-12-28T07:10:23;3.03;;;2.27;;
18532;SDS011;9396;51.510;11.934;2023-12-28T07:12:50;6.00;;;2.70;;
18532;SDS011;9396;51.510;11.934;2023-12-28T07:15:17;4.13;;;2.67;;
18532;SDS011;9396;51.510;11.934;2023-12-28T07:17:45;4.13;;;2.47;;
18532;SDS011;9396;51.510;11.934;2023-12-28T07:20:11;2.90;;;2.07;;
18532;SDS011;9396;51.510;11.934;2023-12-28T07:22:38;3.13;;;2.73;;
18532;SDS011;9396;51.510;11.934;2023-12-28T07:25:05;4.10;;;2.63;;
18532;SDS011;9396;51.510;11.934;2023-12-28T07:27:32;3.80;;;2.43;;
18532;SDS011;9396;51.510;11.934;2023-12-28T07:29:59;5.30;;;2.43;;
18532;SDS011;9396;51.510;11.934;2023-12-28T07:32:25;3.40;;;2.43;;
18532;SDS011;9396;51.510;11.934;2023-12-28T07:34:54;6.13;;;2.30;;
18532;SDS011;9396;51.510;11.934;2023-12-28T07:37:20;2.73;;;2.10;;
18532;SDS011;9396;51.510;11.934;2023-12-28T07:39:47;3.47;;;2.10;;
18532;SDS011;9396;51.510;11.934;2023-12-28T07:42:14;4.13;;;2.43;;
18532;SDS011;9396;51.510;11.934;2023-12-28T07:44:41;3.80;;;2.40;;
18532;SDS011;9396;51.510;11.934;2023-12-28T07:47:07;6.20;;;2.67;;
18532;SDS011;9396;51.510;11.934;2023-12-28T07:49:34;4.10;;;2.40;;
18532;SDS011;9396;51.510;11.934;2023-12-28T07:52:02;5.30;;;2.43;;
18532;SDS011;9396;51.510;11.934;2023-12-28T07:54:29;3.30;;;2.40;;
18532;SDS011;9396;51.510;11.934;2023-12-28T07:56:55;3.83;;;2.60;;
18532;SDS011;9396;51.510;11.934;2023-12-28T07:59:22;2.97;;;2.40;;
18532;SDS011;9396;51.510;11.934;2023-12-28T08:01:49;4.67;;;2.60;;
18532;SDS011;9396;51.510;11.934;2023-12-28T08:04:15;2.90;;;2.37;;
18532;SDS011;9396;51.510;11.934;2023-12-28T08:06:42;3.57;;;2.57;;
18532;SDS011;9396;51.510;11.934;2023-12-28T08:09:10;2.50;;;2.17;;
18532;SDS011;9396;51.510;11.934;2023-12-28T08:11:37;2.90;;;2.30;;
18532;SDS011;9396;51.510;11.934;2023-12-28T08:14:04;3.53;;;2.33;;
18532;SDS011;9396;51.510;11.934;2023-12-28T08:16:31;5.40;;;2.67;;
18532;SDS011;9396;51.510;11.934;2023-12-28T08:18:57;3.67;;;2.20;;
18532;SDS011;9396;51.510;11.934;2023-12-28T08:21:24;2.60;;;2.10;;
18532;SDS011;9396;51.510;11.934;2023-12-28T08:23:51;4.73;;;2.20;;
18532;SDS011;9396;51.510;11.934;2023-12-28T08:26:19;3.77;;;2.20;;
18532;SDS011;9396;51.510;11.934;2023-12-28T08:28:46;4.13;;;2.40;;
18532;SDS011;9396;51.510;11.934;2023-12-28T08:31:12;5.20;;;2.33;;
18532;SDS011;9396;51.510;11.934;2023-12-28T08:33:40;3.70;;;2.40;;
18532;SDS011;9396;51.510;11.934;2023-12-28T08:36:07;3.57;;;2.03;;
18532;SDS011;9396;51.510;11.934;2023-12-28T08:38:34;2.40;;;2.00;;
18532;SDS011;9396;51.510;11.934;2023-12-28T08:41:02;3.60;;;2.43;;
18532;SDS011;9396;51.510;11.934;2023-12-28T08:43:35;5.60;;;2.43;;
18532;SDS011;9396;51.510;11.934;2023-12-28T08:46:02;6.73;;;2.43;;
18532;SDS011;9396;51.510;11.934;2023-12-28T08:48:28;2.83;;;2.50;;
18532;SDS011;9396;51.510;11.934;2023-12-28T08:50:55;2.83;;;2.20;;
18532;SDS011;9396;51.510;11.934;2023-12-28T08:53:22;3.47;;;2.37;;
18532;SDS011;9396;51.510;11.934;2023-12-28T08:55:48;3.67;;;2.43;;
18532;SDS011;9396;51.510;11.934;2023-12-28T08:58:15;3.23;;;2.23;;
18532;SDS011;9396;51.510;11.934;2023-12-28T09:00:43;6.17;;;2.70;;
18532;SDS011;9396;51.510;11.934;2023-12-28T09:03:10;3.33;;;2.27;;
18532;SDS011;9396;51.510;11.934;2023-12-28T09:05:37;2.83;;;2.20;;
18532;SDS011;9396;51.510;11.934;2023-12-28T09:08:04;2.57;;;2.13;;
18532;SDS011;9396;51.510;11.934;2023-12-28T09:10:31;3.60;;;2.17;;
18532;SDS011;9396;51.510;11.934;2023-12-28T09:12:58;6.40;;;2.67;;
18532;SDS011;9396;51.510;11.934;2023-12-28T09:15:24;3.50;;;2.33;;
18532;SDS011;9396;51.510;11.934;2023-12-28T09:17:52;3.50;;;2.17;;
18532;SDS011;9396;51.510;11.934;2023-12-28T09:20:19;3.70;;;2.50;;
18532;SDS011;9396;51.510;11.934;2023-12-28T09:22:45;2.60;;;2.10;;
18532;SDS011;9396;51.510;11.934;2023-12-28T09:25:13;3.20;;;2.30;;
18532;SDS011;9396;51.510;11.934;2023-12-28T09:27:39;5.13;;;2.07;;
18532;SDS011;9396;51.510;11.934;2023-12-28T09:30:06;3.10;;;2.53;;
18532;SDS011;9396;51.510;11.934;2023-12-28T09:32:34;3.70;;;2.20;;
18532;SDS011;9396;51.510;11.934;2023-12-28T09:35:02;5.07;;;2.80;;
18532;SDS011;9396;51.510;11.934;2023-12-28T09:37:29;4.53;;;2.13;;
18532;SDS011;9396;51.510;11.934;2023-12-28T09:39:56;3.07;;;2.10;;
18532;SDS011;9396;51.510;11.934;2023-12-28T09:42:24;3.37;;;2.17;;
18532;SDS011;9396;51.510;11.934;2023-12-28T09:44:52;6.00;;;2.13;;
18532;SDS011;9396;51.510;11.934;2023-12-28T09:47:19;3.40;;;2.33;;
18532;SDS011;9396;51.510;11.934;2023-12-28T09:49:46;4.83;;;2.30;;
18532;SDS011;9396;51.510;11.934;2023-12-28T09:52:14;4.27;;;2.20;;
18532;SDS011;9396;51.510;11.934;2023-12-28T09:54:41;4.97;;;1.97;;
18532;SDS011;9396;51.510;11.934;2023-12-28T09:57:08;3.30;;;2.40;;
18532;SDS011;9396;51.510;11.934;2023-12-28T09:59:36;3.77;;;2.10;;
18532;SDS011;9396;51.510;11.934;2023-12-28T10:02:04;2.50;;;1.93;;
18532;SDS011;9396;51.510;11.934;2023-12-28T10:04:31;3.37;;;1.97;;
18532;SDS011;9396;51.510;11.934;2023-12-28T10:06:58;2.77;;;2.10;;
18532;SDS011;9396;51.510;11.934;2023-12-28T10:09:26;3.53;;;2.27;;
18532;SDS011;9396;51.510;11.934;2023-12-28T10:11:53;2.83;;;1.90;;
18532;SDS011;9396;51.510;11.934;2023-12-28T10:14:20;4.33;;;2.10;;
18532;SDS011;9396;51.510;11.934;2023-12-28T10:16:46;2.57;;;2.20;;
18532;SDS011;9396;51.510;11.934;2023-12-28T10:19:13;3.03;;;2.30;;
18532;SDS011;9396;51.510;11.934;2023-12-28T10:21:40;4.13;;;1.90;;
18532;SDS011;9396;51.510;11.934;2023-12-28T10:24:09;3.77;;;2.03;;
18532;SDS011;9396;51.510;11.934;2023-12-28T10:26:37;3.27;;;2.17;;
18532;SDS011;9396;51.510;11.934;2023-12-28T10:29:05;4.70;;;2.43;;
18532;SDS011;9396;51.510;11.934;2023-12-28T10:31:31;2.73;;;2.00;;
18532;SDS011;9396;51.510;11.934;2023-12-28T10:33:58;3.37;;;2.23;;
18532;SDS011;9396;51.510;11.934;2023-12-28T10:36:27;4.90;;;2.40;;
18532;SDS011;9396;51.510;11.934;2023-12-28T10:38:54;4.67;;;2.07;;
18532;SDS011;9396;51.510;11.934;2023-12-28T10:41:20;2.23;;;2.03;;
18532;SDS011;9396;51.510;11.934;2023-12-28T10:43:51;3.93;;;2.07;;
18532;SDS011;9396;51.510;11.934;2023-12-28T10:46:25;4.57;;;2.43;;
18532;SDS011;9396;51.510;11.934;2023-12-28T10:48:55;2.60;;;1.97;;
18532;SDS011;9396;51.510;11.934;2023-12-28T10:51:25;3.30;;;2.07;;
18532;SDS011;9396;51.510;11.934;2023-12-28T10:53:54;2.67;;;2.13;;
18532;SDS011;9396;51.510;11.934;2023-12-28T10:56:32;2.50;;;1.73;;
18532;SDS011;9396;51.510;11.934;2023-12-28T10:59:05;2.90;;;2.00;;
18532;SDS011;9396;51.510;11.934;2023-12-28T11:01:41;3.93;;;2.00;;
18532;SDS011;9396;51.510;11.934;2023-12-28T11:04:10;2.07;;;1.80;;
18532;SDS011;9396;51.510;11.934;2023-12-28T11:06:50;2.70;;;2.07;;
18532;SDS011;9396;51.510;11.934;2023-12-28T11:09:18;4.90;;;2.17;;
18532;SDS011;9396;51.510;11.934;2023-12-28T11:11:48;3.83;;;2.10;;
18532;SDS011;9396;51.510;11.934;2023-12-28T11:14:18;3.13;;;2.23;;
18532;SDS011;9396;51.510;11.934;2023-12-28T11:16:46;2.87;;;1.90;;
18532;SDS011;9396;51.510;11.934;2023-12-28T11:19:14;3.17;;;2.00;;
18532;SDS011;9396;51.510;11.934;2023-12-28T11:21:41;2.93;;;1.97;;
18532;SDS011;9396;51.510;11.934;2023-12-28T11:24:08;3.07;;;1.80;;
18532;SDS011;9396;51.510;11.934;2023-12-28T11:26:37;2.30;;;1.73;;
18532;SDS011;9396;51.510;11.934;2023-12-28T11:29:04;2.73;;;2.00;;
18532;SDS011;9396;51.510;11.934;2023-12-28T11:31:33;2.73;;;2.20;;
18532;SDS011;9396;51.510;11.934;2023-12-28T11:34:00;3.83;;;1.77;;
18532;SDS011;9396;51.510;11.934;2023-12-28T11:36:32;1.77;;;1.63;;
18532;SDS011;9396;51.510;11.934;2023-12-28T11:39:01;4.37;;;2.00;;
18532;SDS011;9396;51.510;11.934;2023-12-28T11:41:30;3.77;;;2.07;;
18532;SDS011;9396;51.510;11.934;2023-12-28T11:43:57;5.90;;;1.90;;
18532;SDS011;9396;51.510;11.934;2023-12-28T11:46:28;2.53;;;1.70;;
18532;SDS011;9396;51.510;11.934;2023-12-28T11:49:03;3.70;;;1.93;;
18532;SDS011;9396;51.510;11.934;2023-12-28T11:51:31;5.27;;;1.83;;
18532;SDS011;9396;51.510;11.934;2023-12-28T11:53:58;4.17;;;1.90;;
18532;SDS011;9396;51.510;11.934;2023-12-28T11:56:25;3.10;;;1.40;;
18532;SDS011;9396;51.510;11.934;2023-12-28T11:58:52;3.63;;;1.73;;
18532;SDS011;9396;51.510;11.934;2023-12-28T12:01:18;2.43;;;1.47;;
18532;SDS011;9396;51.510;11.934;2023-12-28T12:03:45;4.03;;;1.83;;
18532;SDS011;9396;51.510;11.934;2023-12-28T12:06:13;2.07;;;1.53;;
18532;SDS011;9396;51.510;11.934;2023-12-28T12:08:40;1.90;;;1.50;;
18532;SDS011;9396;51.510;11.934;2023-12-28T12:11:06;2.53;;;1.50;;
18532;SDS011;9396;51.510;11.934;2023-12-28T12:13:33;2.70;;;1.63;;
18532;SDS011;9396;51.510;11.934;2023-12-28T12:16:02;3.77;;;1.63;;
18532;SDS011;9396;51.510;11.934;2023-12-28T12:18:31;2.80;;;1.63;;
18532;SDS011;9396;51.510;11.934;2023-12-28T12:20:57;2.30;;;1.40;;
18532;SDS011;9396;51.510;11.934;2023-12-28T12:23:25;3.47;;;1.80;;
18532;SDS011;9396;51.510;11.934;2023-12-28T12:25:52;2.63;;;1.80;;
18532;SDS011;9396;51.510;11.934;2023-12-28T12:28:19;6.37;;;1.90;;
18532;SDS011;9396;51.510;11.934;2023-12-28T12:30:49;2.27;;;1.30;;
18532;SDS011;9396;51.510;11.934;2023-12-28T12:33:17;3.77;;;1.53;;
18532;SDS011;9396;51.510;11.934;2023-12-28T12:35:44;2.97;;;1.57;;
18532;SDS011;9396;51.510;11.934;2023-12-28T12:38:11;3.17;;;1.40;;
18532;SDS011;9396;51.510;11.934;2023-12-28T12:40:39;7.77;;;1.50;;
18532;SDS011;9396;51.510;11.934;2023-12-28T12:43:06;3.20;;;1.60;;
18532;SDS011;9396;51.510;11.934;2023-12-28T12:45:34;2.63;;;1.60;;
18532;SDS011;9396;51.510;11.934;2023-12-28T12:48:01;3.87;;;1.40;;
18532;SDS011;9396;51.510;11.934;2023-12-28T12:50:28;2.17;;;1.47;;
18532;SDS011;9396;51.510;11.934;2023-12-28T12:52:58;3.27;;;1.60;;
18532;SDS011;9396;51.510;11.934;2023-12-28T12:55:25;3.03;;;1.40;;
18532;SDS011;9396;51.510;11.934;2023-12-28T12:57:53;3.37;;;1.33;;
18532;SDS011;9396;51.510;11.934;2023-12-28T13:00:21;2.77;;;1.47;;
18532;SDS011;9396;51.510;11.934;2023-12-28T13:02:49;2.70;;;1.47;;
18532;SDS011;9396;51.510;11.934;2023-12-28T13:05:17;1.93;;;1.20;;
18532;SDS011;9396;51.510;11.934;2023-12-28T13:07:43;2.07;;;1.27;;
18532;SDS011;9396;51.510;11.934;2023-12-28T13:10:10;2.47;;;1.20;;
18532;SDS011;9396;51.510;11.934;2023-12-28T13:12:37;2.60;;;1.53;;
18532;SDS011;9396;51.510;11.934;2023-12-28T13:15:05;3.67;;;1.57;;
18532;SDS011;9396;51.510;11.934;2023-12-28T13:17:34;2.53;;;1.20;;
18532;SDS011;9396;51.510;11.934;2023-12-28T13:20:01;4.17;;;1.60;;
18532;SDS011;9396;51.510;11.934;2023-12-28T13:22:28;3.40;;;1.20;;
18532;SDS011;9396;51.510;11.934;2023-12-28T13:24:55;3.33;;;1.43;;
18532;SDS011;9396;51.510;11.934;2023-12-28T13:27:22;2.77;;;1.50;;
18532;SDS011;9396;51.510;11.934;2023-12-28T13:29:49;3.50;;;1.67;;
18532;SDS011;9396;51.510;11.934;2023-12-28T13:32:17;3.50;;;1.60;;
18532;SDS011;9396;51.510;11.934;2023-12-28T13:34:43;5.73;;;1.73;;
18532;SDS011;9396;51.510;11.934;2023-12-28T13:37:10;6.63;;;1.70;;
18532;SDS011;9396;51.510;11.934;2023-12-28T13:39:36;3.70;;;1.83;;
18532;SDS011;9396;51.510;11.934;2023-12-28T13:42:04;2.90;;;1.23;;
18532;SDS011;9396;51.510;11.934;2023-12-28T13:44:32;2.17;;;1.40;;
18532;SDS011;9396;51.510;11.934;2023-12-28T13:46:58;7.50;;;1.90;;
18532;SDS011;9396;51.510;11.934;2023-12-28T13:49:26;2.50;;;1.60;;
18532;SDS011;9396;51.510;11.934;2023-12-28T13:51:53;4.97;;;1.50;;
18532;SDS011;9396;51.510;11.934;2023-12-28T13:54:20;3.43;;;1.53;;
18532;SDS011;9396;51.510;11.934;2023-12-28T13:56:47;3.00;;;1.43;;
18532;SDS011;9396;51.510;11.934;2023-12-28T13:59:14;3.97;;;1.60;;
18532;SDS011;9396;51.510;11.934;2023-12-28T14:01:40;2.20;;;1.30;;
18532;SDS011;9396;51.510;11.934;2023-12-28T14:04:07;3.80;;;1.50;;
18532;SDS011;9396;51.510;11.934;2023-12-28T14:06:35;3.30;;;1.60;;
18532;SDS011;9396;51.510;11.934;2023-12-28T14:09:02;2.23;;;1.20;;
18532;SDS011;9396;51.510;11.934;2023-12-28T14:11:28;2.33;;;1.40;;
18532;SDS011;9396;51.510;11.934;2023-12-28T14:13:55;3.43;;;1.30;;
18532;SDS011;9396;51.510;11.934;2023-12-28T14:16:22;3.40;;;1.53;;
18532;SDS011;9396;51.510;11.934;2023-12-28T14:18:49;4.27;;;1.50;;
18532;SDS011;9396;51.510;11.934;2023-12-28T14:21:17;4.83;;;1.60;;
18532;SDS011;9396;51.510;11.934;2023-12-28T14:23:46;3.57;;;1.40;;
18532;SDS011;9396;51.510;11.934;2023-12-28T14:26:13;3.30;;;1.57;;
18532;SDS011;9396;51.510;11.934;2023-12-28T14:28:41;3.17;;;1.37;;
18532;SDS011;9396;51.510;11.934;2023-12-28T14:31:08;2.97;;;1.47;;
18532;SDS011;9396;51.510;11.934;2023-12-28T14:33:38;3.10;;;1.40;;
18532;SDS011;9396;51.510;11.934;2023-12-28T14:36:07;2.20;;;1.40;;
18532;SDS011;9396;51.510;11.934;2023-12-28T14:38:45;2.17;;;1.40;;
18532;SDS011;9396;51.510;11.934;2023-12-28T14:41:12;2.87;;;1.50;;
18532;SDS011;9396;51.510;11.934;2023-12-28T14:43:39;7.47;;;2.20;;
18532;SDS011;9396;51.510;11.934;2023-12-28T14:46:05;3.53;;;1.67;;
18532;SDS011;9396;51.510;11.934;2023-12-28T14:48:32;2.33;;;1.30;;